Time;durP1;ratioP1;P1;durP2;ratioP2;P2;SDS_P1;SDS_P2;PMS_P1;PMS_P2;Temp;Humidity;BMP_temperature;BMP_pressure;BME280_temperature;BME280_humidity;BME280_pressure;Samples;Min_cycle;Max_cycle;Signal;HPM_P1;HPM_P2
2024/01/20 00:00:56;;;;;;;10.55;6.60;;;4.20;99.90;;;;;;4920506;29;20237;-81
2024/01/20 00:03:23;;;;;;;15.82;6.88;;;4.20;99.90;;;;;;4919836;29;20281;-76
2024/01/20 00:05:50;;;;;;;9.30;5.97;;;4.20;99.90;;;;;;4918188;29;20230;-77
2024/01/20 00:08:26;;;;;;;9.32;6.45;;;4.30;99.90;;;;;;4909660;29;20679;-82
2024/01/20 00:10:53;;;;;;;10.95;7.47;;;4.20;99.90;;;;;;4919268;29;20259;-78
2024/01/20 00:13:20;;;;;;;12.50;6.97;;;4.20;99.90;;;;;;4918489;29;20308;-81
2024/01/20 00:15:49;;;;;;;13.20;7.07;;;4.20;99.90;;;;;;4918762;29;20651;-82
2024/01/20 00:18:16;;;;;;;9.25;6.55;;;4.20;99.90;;;;;;4917956;29;20235;-81
2024/01/20 00:20:47;;;;;;;9.68;7.18;;;4.20;99.90;;;;;;4917541;29;20222;-81
2024/01/20 00:23:14;;;;;;;11.23;7.32;;;4.20;99.90;;;;;;4916915;29;20885;-80
2024/01/20 00:25:43;;;;;;;11.90;6.47;;;4.20;99.90;;;;;;4908897;29;20233;-81
2024/01/20 00:28:10;;;;;;;9.90;6.40;;;4.20;99.90;;;;;;4898916;29;20325;-81
2024/01/20 00:30:38;;;;;;;10.15;6.93;;;4.20;99.90;;;;;;4899349;29;20301;-81
2024/01/20 00:33:10;;;;;;;11.43;7.70;;;4.20;99.90;;;;;;4897485;29;20253;-81
2024/01/20 00:35:42;;;;;;;12.25;7.75;;;4.20;99.90;;;;;;4898920;29;20242;-80
2024/01/20 00:38:09;;;;;;;8.77;6.00;;;4.20;99.90;;;;;;4897899;29;20432;-81
2024/01/20 00:40:36;;;;;;;7.30;5.63;;;4.20;99.90;;;;;;4898769;29;20229;-81
2024/01/20 00:43:05;;;;;;;13.23;8.70;;;4.20;99.90;;;;;;4898172;29;20230;-81
2024/01/20 00:45:32;;;;;;;13.32;7.93;;;4.20;99.90;;;;;;4899409;29;20313;-77
2024/01/20 00:47:59;;;;;;;9.43;6.57;;;4.30;99.90;;;;;;4898240;29;20720;-78
2024/01/20 00:50:26;;;;;;;7.25;5.53;;;4.30;99.90;;;;;;4899046;29;20549;-77
2024/01/20 00:52:53;;;;;;;9.57;6.32;;;4.30;99.90;;;;;;4900876;29;20705;-77
2024/01/20 00:55:21;;;;;;;11.00;6.53;;;4.30;99.90;;;;;;4898627;29;20256;-77
2024/01/20 00:57:48;;;;;;;15.10;6.80;;;4.30;99.90;;;;;;4898791;29;20256;-77
2024/01/20 01:00:17;;;;;;;9.65;5.80;;;4.30;99.90;;;;;;4898587;29;20226;-78
2024/01/20 01:02:44;;;;;;;8.38;6.10;;;4.30;99.90;;;;;;4899495;29;20244;-77
2024/01/20 01:05:13;;;;;;;9.55;7.57;;;4.30;99.90;;;;;;4909948;29;20245;-77
2024/01/20 01:07:40;;;;;;;10.82;8.48;;;4.30;99.90;;;;;;4922274;29;20587;-77
2024/01/20 01:10:09;;;;;;;12.00;7.65;;;4.20;99.90;;;;;;4917030;29;20312;-78
2024/01/20 01:12:38;;;;;;;11.57;6.40;;;4.30;99.90;;;;;;4917198;29;20724;-77
2024/01/20 01:15:06;;;;;;;7.85;5.65;;;4.30;99.90;;;;;;4917053;29;20229;-77
2024/01/20 01:17:34;;;;;;;9.70;6.93;;;4.30;99.90;;;;;;4917236;29;20622;-77
2024/01/20 01:20:04;;;;;;;14.50;7.18;;;4.20;99.90;;;;;;4917257;29;20233;-77
2024/01/20 01:22:31;;;;;;;12.80;7.22;;;4.20;99.90;;;;;;4916865;29;20225;-77
2024/01/20 01:24:58;;;;;;;10.13;6.85;;;4.10;99.90;;;;;;4913465;29;20572;-77
2024/01/20 01:27:26;;;;;;;9.55;7.05;;;4.00;99.90;;;;;;4897969;29;20242;-77
2024/01/20 01:29:53;;;;;;;12.70;7.63;;;4.00;99.90;;;;;;4898751;29;20237;-81
2024/01/20 01:32:22;;;;;;;11.95;6.90;;;4.00;99.90;;;;;;4898052;29;20294;-78
2024/01/20 01:34:50;;;;;;;9.75;7.13;;;4.00;99.90;;;;;;4898302;29;20266;-77
2024/01/20 01:37:17;;;;;;;8.65;6.97;;;4.10;99.90;;;;;;4897301;29;20230;-77
2024/01/20 01:39:44;;;;;;;13.18;8.40;;;4.00;99.90;;;;;;4898276;29;20226;-77
2024/01/20 01:42:11;;;;;;;10.88;7.68;;;4.00;99.90;;;;;;4915953;29;20238;-77
2024/01/20 01:44:38;;;;;;;7.30;5.57;;;4.10;99.90;;;;;;4917168;29;20252;-80
2024/01/20 01:47:05;;;;;;;11.68;7.60;;;4.10;99.90;;;;;;4917042;29;20233;-80
2024/01/20 01:49:32;;;;;;;12.32;7.43;;;4.10;99.90;;;;;;4916852;29;20309;-81
2024/01/20 01:52:01;;;;;;;13.40;8.10;;;4.10;99.90;;;;;;4917179;29;20316;-81
2024/01/20 01:54:28;;;;;;;10.10;7.72;;;4.10;99.90;;;;;;4916175;29;20230;-77
2024/01/20 01:57:00;;;;;;;11.98;7.75;;;4.10;99.90;;;;;;4917200;29;20221;-78
2024/01/20 01:59:30;;;;;;;10.02;8.10;;;4.10;99.90;;;;;;4916831;29;20259;-81
2024/01/20 02:01:57;;;;;;;11.23;7.00;;;4.10;99.90;;;;;;4916515;29;20233;-77
2024/01/20 02:04:25;;;;;;;11.90;7.95;;;4.10;99.90;;;;;;4916284;29;20233;-78
2024/01/20 02:06:52;;;;;;;10.32;7.55;;;4.10;99.90;;;;;;4916875;29;20231;-78
2024/01/20 02:09:21;;;;;;;14.95;8.98;;;4.10;99.90;;;;;;4916400;29;20583;-78
2024/01/20 02:11:49;;;;;;;14.65;8.80;;;4.10;99.90;;;;;;4917028;29;20240;-77
2024/01/20 02:14:16;;;;;;;8.85;7.80;;;4.10;99.90;;;;;;4916430;29;20229;-80
2024/01/20 02:16:43;;;;;;;12.82;8.80;;;4.10;99.90;;;;;;4917011;29;20570;-81
2024/01/20 02:19:11;;;;;;;13.27;9.25;;;4.10;99.90;;;;;;4917035;29;20229;-81
2024/01/20 02:21:39;;;;;;;9.48;7.35;;;4.00;99.90;;;;;;4916103;29;20230;-81
2024/01/20 02:24:11;;;;;;;11.13;9.18;;;4.00;99.90;;;;;;4916978;29;20233;-81
2024/01/20 02:26:39;;;;;;;12.15;8.23;;;4.00;99.90;;;;;;4916651;29;20280;-81
2024/01/20 02:29:06;;;;;;;13.63;8.20;;;4.10;99.90;;;;;;4916920;29;20229;-81
2024/01/20 02:31:33;;;;;;;13.15;8.27;;;4.10;99.90;;;;;;4916137;29;20703;-78
2024/01/20 02:34:00;;;;;;;14.45;9.80;;;4.10;99.90;;;;;;4917061;29;20563;-81
2024/01/20 02:36:27;;;;;;;15.80;9.55;;;4.10;99.90;;;;;;4916593;29;20226;-81
2024/01/20 02:38:54;;;;;;;12.52;9.00;;;4.00;99.90;;;;;;4916793;29;20243;-82
2024/01/20 02:41:22;;;;;;;12.75;9.65;;;4.10;99.90;;;;;;4916237;29;20226;-81
2024/01/20 02:43:49;;;;;;;16.17;10.32;;;4.10;99.90;;;;;;4916714;29;20230;-81
2024/01/20 02:46:16;;;;;;;16.25;9.90;;;4.00;99.90;;;;;;4915986;29;20233;-80
2024/01/20 02:48:43;;;;;;;16.05;9.07;;;4.00;99.90;;;;;;4916717;29;20656;-77
2024/01/20 02:51:10;;;;;;;13.85;9.30;;;4.10;99.90;;;;;;4916585;29;20930;-77
2024/01/20 02:53:37;;;;;;;11.75;9.50;;;4.00;99.90;;;;;;4916365;29;20525;-81
2024/01/20 02:56:05;;;;;;;12.98;10.15;;;4.10;99.90;;;;;;4916603;29;20230;-77
2024/01/20 02:58:36;;;;;;;11.93;9.90;;;4.10;99.90;;;;;;4916530;29;20233;-78
2024/01/20 03:01:03;;;;;;;14.40;8.98;;;4.10;99.90;;;;;;4919283;29;20222;-78
2024/01/20 03:03:30;;;;;;;13.02;9.23;;;4.10;99.90;;;;;;4919329;29;20262;-78
2024/01/20 03:06:00;;;;;;;13.75;8.07;;;4.10;99.90;;;;;;4919981;29;20735;-81
2024/01/20 03:08:27;;;;;;;11.27;8.20;;;4.10;99.90;;;;;;4919350;29;20233;-81
2024/01/20 03:10:54;;;;;;;14.38;9.40;;;4.10;99.90;;;;;;4919955;29;20568;-81
2024/01/20 03:13:21;;;;;;;14.35;10.32;;;4.20;99.90;;;;;;4919288;29;20256;-80
2024/01/20 03:15:49;;;;;;;22.63;10.48;;;4.20;99.90;;;;;;4920067;29;20566;-81
2024/01/20 03:18:16;;;;;;;13.52;9.30;;;4.20;99.90;;;;;;4919958;29;20240;-77
2024/01/20 03:20:43;;;;;;;15.02;10.75;;;4.20;99.90;;;;;;4919350;29;20232;-81
2024/01/20 03:23:10;;;;;;;12.75;8.90;;;4.20;99.90;;;;;;4919417;29;20240;-81
2024/01/20 03:25:37;;;;;;;11.18;7.80;;;4.20;99.90;;;;;;4919221;29;20229;-81
2024/01/20 03:28:04;;;;;;;13.65;9.73;;;4.20;99.90;;;;;;4919446;29;20237;-81
2024/01/20 03:30:31;;;;;;;11.10;8.60;;;4.20;99.90;;;;;;4918909;29;20237;-81
2024/01/20 03:32:59;;;;;;;14.88;10.57;;;4.20;99.90;;;;;;4919524;29;20281;-81
2024/01/20 03:35:26;;;;;;;13.68;8.75;;;4.20;99.90;;;;;;4918532;29;20308;-80
2024/01/20 03:37:57;;;;;;;13.95;10.00;;;4.20;99.90;;;;;;4919352;29;20230;-81
2024/01/20 03:40:24;;;;;;;13.60;8.65;;;4.20;99.90;;;;;;4918973;29;20547;-80
2024/01/20 03:42:51;;;;;;;14.70;9.38;;;4.20;99.90;;;;;;4919136;29;20679;-81
2024/01/20 03:45:17;;;;;;;14.23;9.85;;;4.20;99.90;;;;;;4919092;29;20225;-82
2024/01/20 03:47:45;;;;;;;11.60;9.80;;;4.20;99.90;;;;;;4918741;29;20240;-81
2024/01/20 03:50:13;;;;;;;13.38;10.63;;;4.20;99.90;;;;;;4919118;29;20304;-81
2024/01/20 03:52:40;;;;;;;11.23;9.18;;;4.20;99.90;;;;;;4918187;29;20715;-77
2024/01/20 03:55:08;;;;;;;10.10;7.80;;;4.10;99.90;;;;;;4919189;29;20231;-77
2024/01/20 03:57:35;;;;;;;12.85;9.20;;;4.10;99.90;;;;;;4918078;29;20232;-78
2024/01/20 04:00:05;;;;;;;10.02;8.38;;;4.20;99.90;;;;;;4918538;29;20549;-77
2024/01/20 04:02:32;;;;;;;15.00;9.98;;;4.20;99.90;;;;;;4918682;29;20237;-77
2024/01/20 04:04:59;;;;;;;13.80;9.18;;;4.10;99.90;;;;;;4918671;29;20248;-77
2024/01/20 04:07:27;;;;;;;12.27;9.85;;;4.10;99.90;;;;;;4918330;29;20672;-78
2024/01/20 04:09:54;;;;;;;15.13;10.32;;;4.20;99.90;;;;;;4918851;29;20229;-77
2024/01/20 04:12:21;;;;;;;13.63;10.52;;;4.30;99.90;;;;;;4918607;29;20229;-80
2024/01/20 04:14:48;;;;;;;15.65;9.75;;;4.30;99.90;;;;;;4918394;29;20225;-78
2024/01/20 04:17:15;;;;;;;12.32;10.55;;;4.30;99.90;;;;;;4918631;29;20229;-77
2024/01/20 04:19:42;;;;;;;14.05;10.15;;;4.30;99.90;;;;;;4917325;29;20229;-77
2024/01/20 04:22:09;;;;;;;12.57;9.70;;;4.30;99.90;;;;;;4918549;29;20634;-77
2024/01/20 04:24:39;;;;;;;14.55;10.27;;;4.30;99.90;;;;;;4918033;29;20240;-77
2024/01/20 04:27:06;;;;;;;13.48;9.77;;;4.30;99.90;;;;;;4918245;29;20226;-81
2024/01/20 04:29:33;;;;;;;16.38;9.80;;;4.30;99.90;;;;;;4917907;29;20232;-80
2024/01/20 04:32:00;;;;;;;15.25;11.00;;;4.30;99.90;;;;;;4918445;29;20225;-77
2024/01/20 04:34:27;;;;;;;15.25;12.20;;;4.20;99.90;;;;;;4917813;29;20236;-78
2024/01/20 04:36:54;;;;;;;16.70;11.40;;;4.20;99.90;;;;;;4918383;29;20229;-81
2024/01/20 04:39:22;;;;;;;15.98;10.30;;;4.20;99.90;;;;;;4918232;29;20233;-80
2024/01/20 04:41:50;;;;;;;14.23;10.15;;;4.30;99.90;;;;;;4916822;29;20236;-81
2024/01/20 04:44:17;;;;;;;13.82;9.80;;;4.40;99.90;;;;;;4918317;29;20710;-80
2024/01/20 04:46:44;;;;;;;12.23;9.45;;;4.40;99.90;;;;;;4917396;29;20229;-81
2024/01/20 04:49:11;;;;;;;14.10;9.98;;;4.20;99.90;;;;;;4917874;29;20233;-77
2024/01/20 04:51:40;;;;;;;12.68;8.75;;;4.30;99.90;;;;;;4917708;29;20237;-81
2024/01/20 04:54:07;;;;;;;13.73;9.80;;;4.30;99.90;;;;;;4917773;29;20232;-77
2024/01/20 04:56:34;;;;;;;11.82;10.05;;;4.30;99.90;;;;;;4917333;29;20233;-78
2024/01/20 04:59:03;;;;;;;13.27;9.40;;;4.30;99.90;;;;;;4918139;29;20226;-77
2024/01/20 05:01:30;;;;;;;13.10;10.15;;;4.30;99.90;;;;;;4917043;29;20221;-78
2024/01/20 05:03:58;;;;;;;12.07;10.05;;;4.40;99.90;;;;;;4917657;29;20254;-77
2024/01/20 05:06:25;;;;;;;15.85;9.73;;;4.30;99.90;;;;;;4917609;29;20562;-77
2024/01/20 05:08:52;;;;;;;14.20;10.93;;;4.30;99.90;;;;;;4917221;29;20233;-77
2024/01/20 05:11:19;;;;;;;14.65;9.77;;;4.30;99.90;;;;;;4917674;29;20229;-77
2024/01/20 05:13:46;;;;;;;12.63;9.77;;;4.30;99.90;;;;;;4917254;29;20240;-77
2024/01/20 05:16:15;;;;;;;11.38;9.30;;;4.30;99.90;;;;;;4917869;29;20249;-81
2024/01/20 05:18:43;;;;;;;16.55;10.75;;;4.30;99.90;;;;;;4917276;29;20715;-81
2024/01/20 05:21:14;;;;;;;13.30;10.15;;;4.30;99.90;;;;;;4917729;29;20225;-80
2024/01/20 05:23:41;;;;;;;19.10;10.10;;;4.30;99.90;;;;;;4916758;29;20237;-80
2024/01/20 05:26:08;;;;;;;13.07;9.88;;;4.30;99.90;;;;;;4917914;29;20229;-81
2024/01/20 05:28:35;;;;;;;14.52;9.98;;;4.20;99.90;;;;;;4917254;29;20260;-80
2024/01/20 05:31:02;;;;;;;19.65;10.13;;;4.20;99.90;;;;;;4917801;29;20248;-77
2024/01/20 05:33:30;;;;;;;17.23;10.63;;;4.20;99.90;;;;;;4917756;29;20234;-81
2024/01/20 05:35:58;;;;;;;13.73;11.23;;;4.10;99.90;;;;;;4917372;29;20241;-81
2024/01/20 05:38:26;;;;;;;15.27;11.77;;;4.10;99.90;;;;;;4917428;29;20264;-77
2024/01/20 05:40:53;;;;;;;13.65;10.40;;;4.10;99.90;;;;;;4917324;29;20323;-77
2024/01/20 05:43:20;;;;;;;19.25;11.50;;;4.10;99.90;;;;;;4917808;29;20253;-77
2024/01/20 05:45:47;;;;;;;13.32;9.85;;;4.10;99.90;;;;;;4916656;29;20233;-78
2024/01/20 05:48:14;;;;;;;12.52;10.93;;;4.10;99.90;;;;;;4917543;29;20230;-77
2024/01/20 05:50:43;;;;;;;15.18;11.20;;;4.10;99.90;;;;;;4917130;29;20221;-78
2024/01/20 05:53:10;;;;;;;16.98;11.13;;;4.10;99.90;;;;;;4917124;29;20225;-77
2024/01/20 05:55:37;;;;;;;18.63;10.25;;;4.10;99.90;;;;;;4916547;29;20229;-80
2024/01/20 05:58:04;;;;;;;14.05;11.43;;;4.10;99.90;;;;;;4917150;29;20252;-81
2024/01/20 06:00:32;;;;;;;15.82;10.48;;;4.10;99.90;;;;;;4917320;29;20236;-81
2024/01/20 06:02:59;;;;;;;12.48;8.88;;;4.20;99.90;;;;;;4916757;29;20232;-81
2024/01/20 06:05:26;;;;;;;12.32;9.45;;;4.20;99.90;;;;;;4917020;29;20237;-77
2024/01/20 06:07:54;;;;;;;10.63;9.13;;;4.20;99.90;;;;;;4916183;29;20237;-77
2024/01/20 06:10:21;;;;;;;13.20;10.32;;;4.30;99.90;;;;;;4917235;29;20680;-77
2024/01/20 06:12:48;;;;;;;16.05;10.25;;;4.30;99.90;;;;;;4916560;29;20229;-77
2024/01/20 06:15:15;;;;;;;15.32;10.65;;;4.30;99.90;;;;;;4917158;29;20252;-80
2024/01/20 06:17:43;;;;;;;12.55;9.70;;;4.20;99.90;;;;;;4916305;29;20233;-80
2024/01/20 06:20:10;;;;;;;13.23;9.02;;;4.30;99.90;;;;;;4916977;29;20242;-81
2024/01/20 06:22:39;;;;;;;13.45;10.68;;;4.30;99.90;;;;;;4916653;29;20695;-80
2024/01/20 06:25:08;;;;;;;13.88;10.43;;;4.30;99.90;;;;;;4917289;29;20565;-80
2024/01/20 06:27:35;;;;;;;14.40;11.07;;;4.30;99.90;;;;;;4917235;29;20233;-81
2024/01/20 06:30:05;;;;;;;17.25;10.20;;;4.40;99.90;;;;;;4916378;29;20677;-81
2024/01/20 06:32:32;;;;;;;13.73;9.05;;;4.40;99.90;;;;;;4920874;29;20245;-80
2024/01/20 06:34:59;;;;;;;10.73;8.82;;;4.30;99.90;;;;;;4917772;29;20225;-81
2024/01/20 06:37:26;;;;;;;16.05;11.07;;;4.40;99.90;;;;;;4919471;29;20336;-81
2024/01/20 06:39:53;;;;;;;17.65;11.23;;;4.40;99.90;;;;;;4920236;29;20360;-81
2024/01/20 06:42:22;;;;;;;11.70;9.68;;;4.30;99.90;;;;;;4920364;29;20723;-77
2024/01/20 06:44:49;;;;;;;14.60;10.50;;;4.40;99.90;;;;;;4919718;29;20229;-77
2024/01/20 06:47:16;;;;;;;15.25;10.75;;;4.30;99.90;;;;;;4920280;29;20236;-77
2024/01/20 06:49:43;;;;;;;17.83;11.30;;;4.30;99.90;;;;;;4919562;29;20241;-78
2024/01/20 06:52:10;;;;;;;15.55;10.82;;;4.30;99.90;;;;;;4920010;29;20225;-77
2024/01/20 06:54:39;;;;;;;12.10;9.40;;;4.20;99.90;;;;;;4920307;29;20229;-77
2024/01/20 06:57:06;;;;;;;17.92;10.80;;;4.20;99.90;;;;;;4919437;29;20328;-77
2024/01/20 06:59:36;;;;;;;11.85;10.38;;;4.30;99.90;;;;;;4919725;29;20225;-77
2024/01/20 07:02:03;;;;;;;12.48;9.65;;;4.20;99.90;;;;;;4919389;29;20229;-77
2024/01/20 07:04:30;;;;;;;12.23;9.20;;;4.20;99.90;;;;;;4920027;29;20233;-78
2024/01/20 07:06:57;;;;;;;12.65;9.80;;;4.20;99.90;;;;;;4919147;29;20237;-77
2024/01/20 07:09:25;;;;;;;10.63;9.05;;;4.20;99.90;;;;;;4919832;29;20229;-77
2024/01/20 07:11:55;;;;;;;12.23;9.95;;;4.30;99.90;;;;;;4918936;29;20233;-78
2024/01/20 07:14:23;;;;;;;12.40;10.48;;;4.30;99.90;;;;;;4919890;29;20240;-77
2024/01/20 07:16:51;;;;;;;13.85;9.95;;;4.30;99.90;;;;;;4918975;29;20280;-78
2024/01/20 07:19:18;;;;;;;14.35;10.43;;;4.40;99.90;;;;;;4919560;29;20221;-77
2024/01/20 07:21:45;;;;;;;15.18;10.63;;;4.40;99.90;;;;;;4919212;29;20221;-78
2024/01/20 07:24:12;;;;;;;11.68;9.63;;;4.40;99.90;;;;;;4919636;29;20236;-77
2024/01/20 07:26:40;;;;;;;12.30;11.05;;;4.40;99.90;;;;;;4919533;29;20230;-77
2024/01/20 07:29:07;;;;;;;10.95;9.77;;;4.50;99.90;;;;;;4918366;29;20240;-77
2024/01/20 07:31:34;;;;;;;16.75;11.20;;;4.50;99.90;;;;;;4919529;29;20723;-77
2024/01/20 07:34:02;;;;;;;13.07;10.05;;;4.60;99.90;;;;;;4918727;29;20257;-77
2024/01/20 07:36:29;;;;;;;20.05;10.30;;;4.60;99.90;;;;;;4919447;29;20225;-77
2024/01/20 07:38:56;;;;;;;14.90;11.20;;;4.60;99.90;;;;;;4918994;29;20240;-78
2024/01/20 07:41:23;;;;;;;14.00;10.40;;;4.70;99.90;;;;;;4919296;29;20234;-77
2024/01/20 07:43:50;;;;;;;11.73;10.02;;;4.70;99.90;;;;;;4918838;29;20229;-77
2024/01/20 07:46:17;;;;;;;16.60;10.75;;;4.70;99.90;;;;;;4918665;29;20221;-77
2024/01/20 07:48:44;;;;;;;16.73;10.98;;;4.70;99.90;;;;;;4919005;29;20232;-77
2024/01/20 07:51:12;;;;;;;17.00;10.80;;;4.70;99.90;;;;;;4918567;29;20277;-77
2024/01/20 07:53:39;;;;;;;14.38;10.13;;;4.70;99.90;;;;;;4919065;29;20581;-77
2024/01/20 07:56:09;;;;;;;13.85;9.98;;;4.80;99.90;;;;;;4918383;29;20225;-77
2024/01/20 07:58:36;;;;;;;18.27;10.45;;;4.70;99.90;;;;;;4918914;29;20232;-77
2024/01/20 08:01:03;;;;;;;14.40;10.00;;;4.70;99.90;;;;;;4918164;29;20229;-77
2024/01/20 08:03:30;;;;;;;16.90;13.07;;;4.70;99.90;;;;;;4918818;29;20261;-77
2024/01/20 08:05:57;;;;;;;13.38;9.80;;;4.70;99.90;;;;;;4918003;29;20245;-77
2024/01/20 08:08:25;;;;;;;15.65;11.45;;;4.70;99.90;;;;;;4918717;29;20578;-77
2024/01/20 08:10:52;;;;;;;13.85;12.20;;;4.70;99.90;;;;;;4918092;29;20234;-80
2024/01/20 08:13:22;;;;;;;18.83;11.25;;;4.70;99.90;;;;;;4918201;29;20229;-80
2024/01/20 08:15:49;;;;;;;14.10;9.80;;;4.70;99.90;;;;;;4918257;29;20229;-78
2024/01/20 08:18:16;;;;;;;17.63;10.50;;;4.80;99.90;;;;;;4918182;29;20591;-77
2024/01/20 08:20:43;;;;;;;14.63;11.00;;;4.70;99.90;;;;;;4917799;29;20256;-77
2024/01/20 08:23:13;;;;;;;14.00;10.25;;;4.70;99.90;;;;;;4917375;29;20719;-77
2024/01/20 08:25:42;;;;;;;14.93;11.80;;;4.80;99.90;;;;;;4918507;29;20240;-77
2024/01/20 08:28:10;;;;;;;10.88;9.55;;;4.80;99.90;;;;;;4917990;29;20575;-77
2024/01/20 08:30:37;;;;;;;15.15;10.90;;;4.70;99.90;;;;;;4918369;29;20247;-78
2024/01/20 08:33:04;;;;;;;20.02;11.15;;;4.70;99.90;;;;;;4917583;29;20233;-78
2024/01/20 08:35:36;;;;;;;15.05;10.32;;;4.80;99.90;;;;;;4919273;29;20324;-77
2024/01/20 08:38:03;;;;;;;13.63;11.52;;;4.70;99.90;;;;;;4917768;29;20230;-77
2024/01/20 08:40:30;;;;;;;16.27;10.63;;;4.80;99.90;;;;;;4918142;29;20290;-81
2024/01/20 08:42:58;;;;;;;14.60;10.52;;;4.80;99.90;;;;;;4917660;29;20233;-81
2024/01/20 08:45:25;;;;;;;12.25;10.23;;;4.80;99.90;;;;;;4916982;29;20324;-81
2024/01/20 08:47:52;;;;;;;12.43;10.45;;;4.90;99.90;;;;;;4916632;29;20233;-77
2024/01/20 08:50:19;;;;;;;18.50;9.13;;;4.90;99.90;;;;;;4915704;29;20230;-78
2024/01/20 08:52:50;;;;;;;11.70;10.02;;;5.00;99.90;;;;;;4917810;29;20234;-81
2024/01/20 08:55:17;;;;;;;14.18;11.35;;;5.00;99.90;;;;;;4917477;29;20226;-81
2024/01/20 08:57:44;;;;;;;12.98;10.55;;;5.00;99.90;;;;;;4917097;29;20265;-81
2024/01/20 09:00:16;;;;;;;15.77;10.77;;;5.00;99.90;;;;;;4917531;29;20229;-78
2024/01/20 09:02:46;;;;;;;13.07;10.02;;;5.00;99.90;;;;;;4917732;29;20691;-77
2024/01/20 09:05:13;;;;;;;12.43;11.00;;;5.10;99.90;;;;;;4917137;29;20244;-77
2024/01/20 09:07:41;;;;;;;13.70;10.68;;;5.10;99.90;;;;;;4917897;29;20240;-81
2024/01/20 09:10:12;;;;;;;16.15;12.77;;;5.10;99.90;;;;;;4915583;29;20704;-81
2024/01/20 09:12:39;;;;;;;15.85;11.50;;;5.20;99.90;;;;;;4917807;29;20248;-81
2024/01/20 09:15:06;;;;;;;15.52;11.05;;;5.10;99.90;;;;;;4916943;29;20229;-78
2024/01/20 09:17:35;;;;;;;17.70;12.70;;;5.10;99.90;;;;;;4917987;29;20240;-81
2024/01/20 09:20:03;;;;;;;14.48;11.10;;;5.10;99.90;;;;;;4916357;29;20225;-81
2024/01/20 09:22:30;;;;;;;15.32;10.90;;;5.10;99.90;;;;;;4917066;29;20260;-77
2024/01/20 09:24:58;;;;;;;16.50;11.98;;;5.10;99.90;;;;;;4917259;29;20249;-77
2024/01/20 09:27:25;;;;;;;14.35;10.43;;;5.10;99.90;;;;;;4916995;29;20233;-77
2024/01/20 09:29:52;;;;;;;11.73;8.48;;;5.10;99.90;;;;;;4916868;29;20626;-77
2024/01/20 09:32:19;;;;;;;15.07;10.82;;;5.10;99.90;;;;;;4916447;29;20248;-77
2024/01/20 09:34:48;;;;;;;19.25;11.02;;;5.00;99.90;;;;;;4917045;29;20723;-77
2024/01/20 09:37:15;;;;;;;14.68;10.65;;;5.10;99.90;;;;;;4915409;29;20667;-77
2024/01/20 09:39:45;;;;;;;10.43;8.65;;;5.20;99.90;;;;;;4917584;29;20225;-77
2024/01/20 09:42:12;;;;;;;10.18;9.15;;;5.10;99.90;;;;;;4916581;29;20238;-77
2024/01/20 09:44:39;;;;;;;14.07;9.43;;;5.10;99.90;;;;;;4917023;29;20569;-80
2024/01/20 09:47:11;;;;;;;13.65;10.27;;;5.10;99.90;;;;;;4915505;29;20234;-78
2024/01/20 09:49:38;;;;;;;17.05;11.93;;;5.10;99.90;;;;;;4917437;29;20570;-77
2024/01/20 09:52:10;;;;;;;12.65;8.98;;;5.20;99.90;;;;;;4916557;29;20529;-79
2024/01/20 09:54:47;;;;;;;17.30;9.88;;;5.20;99.90;;;;;;4917437;29;20228;-82
2024/01/20 09:57:15;;;;;;;17.30;9.60;;;5.20;99.90;;;;;;4915626;29;20233;-78
2024/01/20 09:59:43;;;;;;;13.13;9.82;;;5.20;99.90;;;;;;4916147;29;20634;-81
2024/01/20 10:02:12;;;;;;;16.35;10.13;;;5.20;99.90;;;;;;4916669;29;20236;-81
2024/01/20 10:04:42;;;;;;;15.00;8.85;;;5.20;99.90;;;;;;4917166;29;20230;-81
2024/01/20 10:07:11;;;;;;;13.07;9.25;;;5.20;99.90;;;;;;4914303;29;20735;-81
2024/01/20 10:09:39;;;;;;;14.05;9.90;;;5.20;99.90;;;;;;4910389;29;20673;-77
2024/01/20 10:12:07;;;;;;;10.90;9.90;;;5.30;99.90;;;;;;4920281;29;20596;-76
2024/01/20 10:14:34;;;;;;;14.20;9.43;;;5.30;99.90;;;;;;4920266;29;20232;-77
2024/01/20 10:17:01;;;;;;;13.15;10.35;;;5.30;99.90;;;;;;4920899;29;20232;-76
2024/01/20 10:19:28;;;;;;;16.42;10.00;;;5.30;99.90;;;;;;4920787;29;20745;-77
2024/01/20 10:21:55;;;;;;;16.58;10.50;;;5.30;99.90;;;;;;4919679;29;20236;-81
2024/01/20 10:24:24;;;;;;;16.15;9.68;;;5.20;99.90;;;;;;4920011;29;20230;-81
2024/01/20 10:26:52;;;;;;;13.77;9.70;;;5.20;99.90;;;;;;4920890;29;20744;-81
2024/01/20 10:29:19;;;;;;;17.08;9.02;;;5.30;99.90;;;;;;4920358;29;20230;-78
2024/01/20 10:31:47;;;;;;;12.23;8.90;;;5.20;99.90;;;;;;4920641;29;20229;-81
2024/01/20 10:34:14;;;;;;;12.65;9.30;;;5.20;99.90;;;;;;4920119;29;20233;-80
2024/01/20 10:36:45;;;;;;;11.35;8.85;;;5.20;99.90;;;;;;4920645;29;20236;-77
2024/01/20 10:39:19;;;;;;;11.40;9.65;;;5.20;99.90;;;;;;4920495;29;20245;-77
2024/01/20 10:41:49;;;;;;;11.95;9.55;;;5.20;99.90;;;;;;4920252;29;20231;-81
2024/01/20 10:44:20;;;;;;;12.18;9.55;;;5.40;99.90;;;;;;4919977;29;20304;-77
2024/01/20 10:46:53;;;;;;;14.43;9.50;;;5.40;99.90;;;;;;4919894;29;20312;-76
2024/01/20 10:49:23;;;;;;;14.57;10.15;;;5.40;99.90;;;;;;4920127;29;20233;-82
2024/01/20 10:51:51;;;;;;;11.40;9.70;;;5.50;99.90;;;;;;4919915;29;20538;-77
2024/01/20 10:54:18;;;;;;;17.92;10.30;;;5.40;99.90;;;;;;4920356;29;20703;-81
2024/01/20 10:56:45;;;;;;;15.32;9.93;;;5.40;99.90;;;;;;4920155;29;20229;-80
2024/01/20 10:59:17;;;;;;;15.13;9.00;;;5.50;99.90;;;;;;4921041;29;20226;-81
2024/01/20 11:01:48;;;;;;;11.43;9.18;;;5.50;99.90;;;;;;4912798;29;20244;-77
2024/01/20 11:04:19;;;;;;;13.82;9.77;;;5.50;99.90;;;;;;4920763;29;20722;-80
2024/01/20 11:06:47;;;;;;;14.25;9.80;;;5.50;99.90;;;;;;4920577;29;20695;-81
2024/01/20 11:09:25;;;;;;;10.68;8.77;;;5.50;99.90;;;;;;4920322;29;20229;-80
2024/01/20 11:12:01;;;;;;;13.98;10.65;;;5.60;99.90;;;;;;4919656;29;20316;-81
2024/01/20 11:14:31;;;;;;;13.30;8.68;;;5.60;99.90;;;;;;4919656;29;20228;-80
2024/01/20 11:17:01;;;;;;;12.82;9.55;;;5.60;99.90;;;;;;4919133;29;20229;-76
2024/01/20 11:19:31;;;;;;;12.68;9.00;;;5.60;99.90;;;;;;4920003;29;20225;-76
2024/01/20 11:21:58;;;;;;;11.05;9.55;;;5.50;99.90;;;;;;4918004;29;20233;-76
2024/01/20 11:24:39;;;;;;;11.98;9.68;;;5.50;99.90;;;;;;4919592;29;20236;-80
2024/01/20 11:27:07;;;;;;;10.52;8.52;;;5.60;99.90;;;;;;4919050;29;20260;-80
2024/01/20 11:29:35;;;;;;;12.00;8.68;;;5.50;99.90;;;;;;4919598;29;20233;-80
2024/01/20 11:32:03;;;;;;;15.40;10.52;;;5.60;99.90;;;;;;4918460;29;20237;-80
2024/01/20 11:34:30;;;;;;;20.90;10.75;;;5.60;99.90;;;;;;4918732;29;20225;-81
2024/01/20 11:37:01;;;;;;;19.90;13.45;;;5.60;99.90;;;;;;4919077;29;20285;-81
2024/01/20 11:39:28;;;;;;;13.60;11.45;;;5.60;99.90;;;;;;4919372;29;20329;-81
2024/01/20 11:42:02;;;;;;;19.23;12.02;;;5.60;99.90;;;;;;4919529;29;20240;-77
2024/01/20 11:44:31;;;;;;;11.52;9.00;;;5.60;99.90;;;;;;4911444;29;20312;-77
2024/01/20 11:46:59;;;;;;;15.18;10.30;;;5.60;99.90;;;;;;4918346;29;20236;-77
2024/01/20 11:49:27;;;;;;;17.35;10.70;;;5.60;99.90;;;;;;4917835;29;20229;-77
2024/01/20 11:51:54;;;;;;;11.25;10.05;;;5.70;99.90;;;;;;4918237;29;20233;-77
2024/01/20 11:54:21;;;;;;;17.98;10.20;;;5.80;99.90;;;;;;4919307;29;20221;-77
2024/01/20 11:56:56;;;;;;;14.43;10.10;;;5.80;99.90;;;;;;4918398;29;20268;-76
2024/01/20 11:59:24;;;;;;;12.05;10.27;;;5.80;99.90;;;;;;4918885;29;20225;-77
2024/01/20 12:01:51;;;;;;;12.77;9.80;;;5.80;99.90;;;;;;4918130;29;20225;-77
2024/01/20 12:04:20;;;;;;;13.70;10.05;;;5.90;99.90;;;;;;4918399;29;20225;-76
2024/01/20 12:06:47;;;;;;;13.18;9.35;;;5.90;99.90;;;;;;4918445;29;20229;-82
2024/01/20 12:09:14;;;;;;;11.68;10.10;;;5.90;99.90;;;;;;4918726;29;20759;-81
2024/01/20 12:11:45;;;;;;;14.15;9.95;;;5.90;99.90;;;;;;4919028;29;20257;-78
2024/01/20 12:14:12;;;;;;;13.90;9.63;;;5.90;99.90;;;;;;4918169;29;20232;-77
2024/01/20 12:16:39;;;;;;;11.63;8.90;;;5.90;99.90;;;;;;4918661;29;20310;-77
2024/01/20 12:19:06;;;;;;;14.48;9.10;;;5.90;99.90;;;;;;4918167;29;20241;-77
2024/01/20 12:21:34;;;;;;;15.05;9.10;;;5.90;99.90;;;;;;4918637;29;20229;-77
2024/01/20 12:24:02;;;;;;;9.35;7.50;;;5.90;99.90;;;;;;4917004;29;20741;-78
2024/01/20 12:26:29;;;;;;;15.30;9.38;;;5.90;99.90;;;;;;4918310;29;20226;-77
2024/01/20 12:28:58;;;;;;;15.23;8.77;;;6.00;99.90;;;;;;4917965;29;20226;-77
2024/01/20 12:31:26;;;;;;;11.77;9.18;;;6.00;99.90;;;;;;4918106;29;20237;-77
2024/01/20 12:33:53;;;;;;;13.20;8.77;;;6.00;99.90;;;;;;4916756;29;20249;-78
2024/01/20 12:36:20;;;;;;;13.95;8.70;;;6.00;99.90;;;;;;4917304;29;20671;-78
2024/01/20 12:38:49;;;;;;;10.80;7.85;;;6.00;99.90;;;;;;4918305;29;20236;-77
2024/01/20 12:41:16;;;;;;;11.60;9.18;;;6.00;99.90;;;;;;4917900;29;20224;-77
2024/01/20 12:43:47;;;;;;;14.27;10.10;;;6.10;99.90;;;;;;4918174;29;20237;-77
2024/01/20 12:46:14;;;;;;;12.43;9.75;;;6.10;99.90;;;;;;4917583;29;20221;-77